Flight Track Log - Related Links

Times and Time Zones

All times are in EDT time to prevent confusion due to time zone crossing. See the GLA42E flight status page for this flight to view local times or setup timezone preferences in your user account.

Time Position Orientation Groundspeed Altitude Reporting Facility
EDT Latitude Longitude Course Direction KTS MPH feet Rate Location/Type
Sun 05:54:27 PM 40.7600 -99.1000 261° West 173 199 6,200  Level Minneapolis Center
Sun 05:55:29 PM 40.7608 -99.1656 271° West 175 201 7,800 1,707 Climbing Minneapolis Center
Sun 05:56:30 PM 40.7631 -99.2322 273° West 178 205 9,700 1,902 Climbing Minneapolis Center
Sun 05:57:32 PM 40.7608 -99.2953 267° West 177 204 11,700 1,854 Climbing Minneapolis Center
Sun 05:58:33 PM 40.7525 -99.3542 259° West 171 197 13,500 1,574 Climbing Minneapolis Center
Sun 05:59:34 PM 40.7397 -99.4114 254° West 166 191 14,900 1,415 Climbing Minneapolis Center
Sun 06:00:36 PM 40.7419 -99.4767 273° West 169 194 16,400 1,000 Climbing Minneapolis Center
Sun 06:01:46 PM 40.7469 -99.5700 274° West 207 238 17,100 318 Climbing Denver Center
Sun 06:02:48 PM 40.7494 -99.6592 272° West 234 269 17,100 194 Level Denver Center
Sun 06:03:50 PM 40.7658 -99.7419 285° West 234 269 17,500 823 Climbing Denver Center
Sun 06:04:52 PM 40.7700 -99.8142 274° West 205 236 18,800 1,258 Climbing Denver Center
Sun 06:05:54 PM 40.7750 -99.9008 274° West 198 228 20,100 1,210 Climbing Denver Center
Sun 06:06:56 PM 40.7797 -99.9725 275° West 203 234 21,300 919 Climbing Denver Center
Sun 06:07:58 PM 40.7883 -100.0567 278° West 206 237 22,000 339 Climbing Denver Center
Sun 06:09:00 PM 40.7917 -100.1342 273° West 221 254 22,000 -48 Level Denver Center
Sun 06:10:02 PM 40.7864 -100.2333 266° West 235 270 21,900  Descending Denver Center
Sun 06:11:04 PM 40.7864 -100.3158 270° West 235 270 22,000 97 Climbing Denver Center
Sun 06:12:06 PM 40.7881 -100.3981 272° West 235 270 22,100  Climbing Denver Center
Sun 06:13:08 PM 40.7892 -100.4942 271° West 234 269 22,000 -48 Descending Denver Center
Sun 06:14:10 PM 40.7894 -100.5753 270° West 232 267 22,000  Level Denver Center
Sun 06:15:12 PM 40.7847 -100.6717 266° West 234 269 22,000  Level Denver Center
Sun 06:16:14 PM 40.7781 -100.7542 264° West 232 267 22,000  Level Denver Center
Sun 06:17:16 PM 40.7731 -100.8375 265° West 234 269 22,000 48 Level Denver Center
Sun 06:18:18 PM 40.7672 -100.9319 265° West 232 267 22,100  Climbing Denver Center
Sun 06:19:20 PM 40.7625 -101.0119 266° West 230 265 22,000  Descending Denver Center
Sun 06:20:22 PM 40.7558 -101.1050 265° West 228 262 22,100  Climbing Denver Center
Sun 06:21:24 PM 40.7503 -101.1844 265° West 228 262 22,000 -48 Descending Denver Center
Sun 06:22:26 PM 40.7422 -101.2786 264° West 230 265 22,000  Level Denver Center
Sun 06:23:28 PM 40.7372 -101.3586 265° West 228 262 22,000  Level Denver Center
Sun 06:24:30 PM 40.7297 -101.4511 264° West 229 264 22,000 48 Level Denver Center
Sun 06:25:32 PM 40.7239 -101.5306 264° West 227 261 22,100  Climbing Denver Center
Sun 06:26:34 PM 40.7197 -101.6103 266° West 228 262 22,000 -48 Descending Denver Center
Sun 06:27:36 PM 40.7144 -101.7061 266° West 235 270 22,000  Level Denver Center
Sun 06:28:38 PM 40.7086 -101.7856 264° West 229 264 22,000  Level Denver Center
Sun 06:29:52 PM 40.7036 -101.8797 266° West 230 265 22,000  Level Denver Center
Sun 06:30:54 PM 40.6986 -101.9886 267° West 232 267 22,000  Level Denver Center
Sun 06:31:56 PM 40.6956 -102.0708 267° West 234 269 22,000  Level Denver Center
Sun 06:32:58 PM 40.6922 -102.1653 267° West 231 266 22,000  Level Denver Center
Sun 06:34:00 PM 40.6872 -102.2500 266° West 240 276 22,000 -97 Level Denver Center
Sun 06:35:02 PM 40.6806 -102.3311 264° West 235 270 21,800 -726 Descending Denver Center
Sun 06:36:04 PM 40.6739 -102.4269 265° West 234 269 20,500 -1,210 Descending Denver Center
Sun 06:37:06 PM 40.6689 -102.5094 265° West 237 273 19,300 -726 Descending Denver Center
Sun 06:38:08 PM 40.6508 -102.6000 255° West 230 265 19,000 -145 Descending Denver Center
Sun 06:39:10 PM 40.6319 -102.6789 253° West 239 275 19,000  Level Denver Center
Sun 06:40:11 PM 40.6108 -102.7656 252° West 245 282 19,000 49 Level Denver Center
Sun 06:41:13 PM 40.5883 -102.8681 254° West 248 285 19,100  Climbing Denver Center
Sun 06:42:15 PM 40.5675 -102.9547 252° West 248 285 19,000  Descending Denver Center
Sun 06:43:17 PM 40.5494 -103.0419 255° West 245 282 19,100  Climbing Denver Center
Sun 06:44:19 PM 40.5314 -103.1272 254° West 241 277 19,000 -48 Descending Denver Center
Sun 06:45:21 PM 40.5147 -103.2142 256° West 242 278 19,000  Level Denver Center
Sun 06:46:23 PM 40.4967 -103.2983 254° West 238 274 19,000  Level Denver Center
Sun 06:47:24 PM 40.4803 -103.3828 256° West 236 272 19,000  Level Denver Center
Sun 06:48:26 PM 40.4647 -103.4672 256° West 235 270 19,000 -145 Level Denver Center
Sun 06:49:28 PM 40.4467 -103.5669 257° West 239 275 18,700 -1,258 Descending Denver Center
Sun 06:50:30 PM 40.4319 -103.6525 257° West 237 273 16,400 -2,226 Descending Denver Center
Sun 06:51:32 PM 40.4153 -103.7381 256° West 248 285 14,100 -1,645 Descending Denver Center
Sun 06:52:34 PM 40.3964 -103.8239 254° West 225 259 13,000 -537 Descending Denver Center
Sun 06:53:35 PM 40.3819 -103.9044 257° West 229 264 13,000 49 Level Denver Center
Sun 06:54:37 PM 40.3644 -103.9833 254° West 228 262 13,100  Climbing Denver Center
Sun 06:55:39 PM 40.3158 -104.0536 228° Southwest 240 276 13,000 -48 Descending Denver Center
Sun 06:56:41 PM 40.2714 -104.1150 227° Southwest 235 270 13,000  Level Denver Center
Sun 06:57:43 PM 40.2283 -104.1797 229° Southwest 236 272 13,000  Level Denver Center
Sun 06:58:44 PM 40.1711 -104.2353 217° Southwest 239 275 13,000 49 Level Denver Center
Sun 06:59:46 PM 40.1211 -104.2939 222° Southwest 240 276 13,100 48 Climbing Denver Center
Sun 07:00:48 PM 40.0697 -104.3622 226° Southwest 244 281 13,100  Level Denver Center
Sun 07:01:20 PM 40.0500 -104.4000 236° Southwest 244 281 13,100 -65 Level Denver TRACON
Sun 07:02:20 PM 39.9833 -104.4500 210° Southwest 249 287 13,000 -500 Descending Denver TRACON
Sun 07:03:20 PM 39.9333 -104.4833 207° Southwest 254 292 12,100 -950 Descending Denver TRACON
Sun 07:04:20 PM 39.8667 -104.4833 180° South 239 275 11,100 -695 Descending Denver TRACON
Sun 07:04:55 PM 39.8272 -104.4908 188° South 241 277 11,000 -371 Descending Denver Center
Sun 07:05:57 PM 39.7608 -104.5061 190° South 240 276 10,500 -774 Descending Denver Center
Sun 07:06:59 PM 39.7028 -104.5608 216° Southwest 243 280 9,400 -1,113 Descending Denver Center
Sun 07:08:01 PM 39.6928 -104.6344 260° West 240 276 8,200 -1,258 Descending Denver Center
Sun 07:09:03 PM 39.7594 -104.6419 355° North 220 253 6,800 -1,065 Descending Denver Center
Sun 07:10:05 PM 39.8069 -104.6419 360° North 165 190 6,000 -677 Descending Denver Center
Sun 07:11:07 PM 39.8422 -104.6414 North 142 163 5,400 -581 Descending Denver Center
Sun 07:13:00 PM 39.8500 -104.6667 355° North  Level FlightAware Approximate
Sun 07:20:00 PM 39.8617 -104.6732 355° North  Level Estimated
Sun 07:21:00 PM 39.8617 -104.6732 355° North  Level Estimated

Login

Don't have an account? Register now (free) for customized features, flight alerts, and more!